Terminal Aerodrome Forecast
Issued by NWS Buffalo, NY

Home | Current Version | Previous Version | Text Only | Print | Product List | Glossary On
Versions: 1 2 3 4 5 6 7 8 9 10 11 12 13 14 15 16 17 18 19 20 21 22 23 24
000
FTUS41 KBUF 210500
TAFROC
TAF
KROC 210527Z 2106/2206 22004KT P6SM SCT110
     FM211900 26006KT P6SM BKN120
     FM212300 VRB03KT P6SM BKN130
     FM220300 21004KT P6SM BKN120=

USA.gov is the U.S. government's official web portal to all federal, state and local government web resources and services.